createdAt,value
2019-04-22T00:02:00.518Z,101120.18
2019-04-22T00:04:42.167Z,101120.48
2019-04-22T00:07:22.740Z,101113.64
2019-04-22T00:09:59.471Z,101118.50
2019-04-22T00:12:27.588Z,101117.16
2019-04-22T00:14:52.487Z,101115.81
2019-04-22T00:17:38.703Z,101110.27
2019-04-22T00:20:06.122Z,101110.16
2019-04-22T00:22:35.136Z,101104.81
2019-04-22T00:25:10.466Z,101107.38
2019-04-22T00:27:40.724Z,101099.55
2019-04-22T00:30:15.504Z,101101.46
2019-04-22T00:32:50.009Z,101097.94
2019-04-22T00:35:18.173Z,101092.88
2019-04-22T00:37:56.996Z,101096.07
2019-04-22T00:40:28.181Z,101093.17
2019-04-22T00:45:36.795Z,101096.53
2019-04-22T00:48:00.888Z,101093.20
2019-04-22T00:50:37.463Z,101085.74
2019-04-22T00:53:11.950Z,101083.81
2019-04-22T00:55:38.095Z,101085.10
2019-04-22T00:58:14.201Z,101082.95
2019-04-22T01:00:44.412Z,101082.56
2019-04-22T01:03:21.478Z,101082.69
2019-04-22T01:05:46.855Z,101075.39
2019-04-22T01:08:26.696Z,101080.95
2019-04-22T01:10:57.019Z,101073.14
2019-04-22T01:13:24.760Z,101069.17
2019-04-22T01:16:03.195Z,101070.87
2019-04-22T01:18:25.081Z,101064.58
2019-04-22T01:23:28.192Z,101063.08
2019-04-22T01:25:57.058Z,101061.13
2019-04-22T01:28:23.915Z,101060.05
2019-04-22T01:30:51.439Z,101056.88
2019-04-22T01:33:23.261Z,101057.73
2019-04-22T01:36:02.728Z,101049.53
2019-04-22T01:38:36.692Z,101045.55
2019-04-22T01:41:16.475Z,101046.23
2019-04-22T01:43:51.830Z,101042.75
2019-04-22T01:46:16.614Z,101038.39
2019-04-22T01:48:57.789Z,101035.56
2019-04-22T01:51:28.264Z,101042.27
2019-04-22T01:53:58.519Z,101042.08
2019-04-22T01:56:28.616Z,101034.16
2019-04-22T01:58:50.329Z,101034.58
2019-04-22T02:01:30.362Z,101026.66
2019-04-22T02:04:02.717Z,101022.36
2019-04-22T02:06:37.589Z,101022.94
2019-04-22T02:09:10.655Z,101022.66
2019-04-22T02:11:39.122Z,101013.81
2019-04-22T02:14:09.209Z,101012.97
2019-04-22T02:19:11.243Z,101008.55
2019-04-22T02:21:35.768Z,101009.95
2019-04-22T02:24:15.954Z,101002.91
2019-04-22T02:26:41.699Z,100998.23
2019-04-22T02:29:17.186Z,101000.30
2019-04-22T02:31:55.874Z,101003.88
2019-04-22T02:34:24.062Z,101004.67
2019-04-22T02:36:54.336Z,100997.61
2019-04-22T02:41:58.596Z,100996.67
2019-04-22T02:44:28.782Z,100995.41
2019-04-22T02:49:29.197Z,100998.27
2019-04-22T02:52:06.406Z,101000.46
2019-04-22T02:57:18.805Z,100992.23
2019-04-22T02:59:43.283Z,101000.30
2019-04-22T03:02:14.584Z,100997.29
2019-04-22T03:04:37.409Z,100996.19
2019-04-22T03:07:03.336Z,100995.54
2019-04-22T03:09:38.350Z,100995.39
2019-04-22T03:12:22.002Z,100985.60
2019-04-22T03:17:25.540Z,100980.20
2019-04-22T03:19:58.767Z,100974.72
2019-04-22T03:27:37.109Z,100970.70
2019-04-22T03:30:45.582Z,100964.62
2019-04-22T03:37:50.358Z,100961.94
2019-04-22T03:42:55.745Z,100955.92
2019-04-22T03:48:01.912Z,100954.77
2019-04-22T03:50:25.367Z,100948.95
2019-04-22T03:53:05.924Z,100947.02
2019-04-22T03:57:57.193Z,100951.13
2019-04-22T04:08:15.129Z,100939.69
2019-04-22T04:10:40.016Z,100942.75
2019-04-22T04:13:21.103Z,100937.70
2019-04-22T04:15:36.459Z,100934.82
2019-04-22T04:18:13.303Z,100932.15
2019-04-22T04:26:32.466Z,100929.83
2019-04-22T04:31:02.008Z,100929.31
2019-04-22T04:33:35.972Z,100922.45
2019-04-22T04:36:14.624Z,100924.45
2019-04-22T04:38:34.080Z,100918.03
2019-04-22T04:41:06.278Z,100917.00
2019-04-22T04:43:42.069Z,100918.78
2019-04-22T04:46:09.388Z,100919.64
2019-04-22T04:51:15.962Z,100914.20
2019-04-22T04:53:53.096Z,100913.00
2019-04-22T04:56:27.914Z,100914.20
2019-04-22T04:58:55.841Z,100917.52
2019-04-22T05:01:35.432Z,100916.90
2019-04-22T05:03:59.401Z,100921.48
2019-04-22T05:06:24.261Z,100919.26
2019-04-22T05:11:24.946Z,100915.05
2019-04-22T05:18:59.207Z,100913.75
2019-04-22T05:21:33.079Z,100910.29
2019-04-22T05:24:00.932Z,100911.78
2019-04-22T05:26:30.997Z,100909.70
2019-04-22T05:29:02.640Z,100903.91
2019-04-22T05:31:32.614Z,100899.70
2019-04-22T05:33:56.368Z,100900.11
2019-04-22T05:36:30.017Z,100902.40
2019-04-22T05:39:00.186Z,100901.02
2019-04-22T05:41:36.452Z,100897.19
2019-04-22T05:44:02.789Z,100900.57
2019-04-22T05:46:34.777Z,100893.48
2019-04-22T05:49:07.070Z,100897.13
2019-04-22T05:51:42.017Z,100899.83
2019-04-22T05:59:10.387Z,100892.55
2019-04-22T06:01:51.775Z,100885.50
2019-04-22T06:04:16.790Z,100884.38
2019-04-22T06:06:51.624Z,100889.71
2019-04-22T06:11:48.244Z,100891.37
2019-04-22T06:14:20.397Z,100884.41
2019-04-22T06:17:01.802Z,100889.22
2019-04-22T06:19:24.499Z,100883.12
2019-04-22T06:21:58.025Z,100879.27
2019-04-22T06:24:50.720Z,100880.53
2019-04-22T06:27:08.302Z,100887.33
2019-04-22T06:29:30.135Z,100888.05
2019-04-22T06:32:26.536Z,100889.39
2019-04-22T06:37:13.034Z,100885.62
2019-04-22T06:39:40.208Z,100891.61
2019-04-22T06:42:13.418Z,100883.77
2019-04-22T06:44:45.732Z,100886.06
2019-04-22T06:47:28.674Z,100879.33
2019-04-22T06:49:52.569Z,100886.33
2019-04-22T06:52:17.740Z,100883.12
2019-04-22T06:54:54.530Z,100885.85
2019-04-22T06:57:19.465Z,100878.54
2019-04-22T07:00:14.260Z,100881.09
2019-04-22T07:02:33.809Z,100887.45
2019-04-22T07:04:59.586Z,100881.23
2019-04-22T07:07:25.182Z,100881.84
2019-04-22T07:10:11.517Z,100882.31
2019-04-22T07:12:30.474Z,100887.77
2019-04-22T07:15:01.696Z,100885.69
2019-04-22T07:17:39.431Z,100881.44
2019-04-22T07:20:04.169Z,100875.27
2019-04-22T07:22:38.919Z,100873.58
2019-04-22T07:25:06.176Z,100865.16
2019-04-22T07:27:44.127Z,100868.47
2019-04-22T07:30:17.364Z,100868.00
2019-04-22T07:33:04.819Z,100870.63
2019-04-22T07:35:25.212Z,100867.81
2019-04-22T07:37:47.093Z,100867.84
2019-04-22T07:40:17.096Z,100866.28
2019-04-22T07:42:52.098Z,100863.36
2019-04-22T07:45:25.501Z,100862.91
2019-04-22T07:50:37.427Z,100857.77
2019-04-22T07:52:51.375Z,100857.52
2019-04-22T07:55:27.241Z,100852.60
2019-04-22T07:57:59.401Z,100853.98
2019-04-22T08:00:34.087Z,100853.73
2019-04-22T08:05:44.327Z,100846.86
2019-04-22T08:08:13.050Z,100848.29
2019-04-22T08:13:22.973Z,100840.92
2019-04-22T08:18:17.490Z,100834.48
2019-04-22T08:20:56.612Z,100833.84
2019-04-22T08:23:23.754Z,100838.66
2019-04-22T08:25:55.445Z,100835.91
2019-04-22T08:28:31.747Z,100842.98
2019-04-22T08:31:01.907Z,100835.01
2019-04-22T08:33:38.191Z,100831.80
2019-04-22T08:36:11.946Z,100831.91
2019-04-22T08:38:46.955Z,100822.25
2019-04-22T08:41:17.892Z,100816.58
2019-04-22T08:43:55.865Z,100819.35
2019-04-22T08:46:25.243Z,100816.23
2019-04-22T08:48:52.985Z,100808.55
2019-04-22T08:56:33.731Z,100796.05
2019-04-22T08:59:07.061Z,100786.34
2019-04-22T09:01:29.618Z,100784.69
2019-04-22T09:04:00.605Z,100783.20
2019-04-22T09:06:39.988Z,100776.83
2019-04-22T09:09:02.083Z,100774.48
2019-04-22T09:11:41.788Z,100773.10
2019-04-22T09:16:37.365Z,100759.90
2019-04-22T09:19:10.756Z,100755.03
2019-04-22T09:21:43.346Z,100753.74
2019-04-22T09:24:10.702Z,100750.16
2019-04-22T09:26:44.502Z,100748.39
2019-04-22T09:29:23.577Z,100740.93
2019-04-22T09:31:49.769Z,100742.83
2019-04-22T09:34:18.574Z,100732.16
2019-04-22T09:36:50.265Z,100729.78
2019-04-22T09:39:28.274Z,100726.52
2019-04-22T09:41:52.111Z,100731.16
2019-04-22T09:44:28.151Z,100724.00
2019-04-22T09:46:51.999Z,100719.75
2019-04-22T09:49:26.715Z,100721.91
2019-04-22T09:52:01.473Z,100713.19
2019-04-22T09:54:38.714Z,100711.66
2019-04-22T09:57:01.584Z,100709.20
2019-04-22T09:59:36.786Z,100701.14
2019-04-22T10:02:19.728Z,100698.04
2019-04-22T10:04:39.505Z,100684.72
2019-04-22T10:07:13.068Z,100679.28
2019-04-22T10:12:12.236Z,100684.65
2019-04-22T10:14:45.121Z,100679.48
2019-04-22T10:17:15.607Z,100669.16
2019-04-22T10:19:41.062Z,100671.99
2019-04-22T10:22:20.010Z,100661.60
2019-04-22T10:24:45.388Z,100657.78
2019-04-22T10:27:24.343Z,100662.31
2019-04-22T10:29:54.174Z,100654.95
2019-04-22T10:32:20.636Z,100658.42
2019-04-22T10:34:38.772Z,100657.78
2019-04-22T10:37:05.697Z,100637.03
2019-04-22T10:39:43.861Z,100642.80
2019-04-22T10:42:07.167Z,100636.09
2019-04-22T10:44:37.375Z,100631.13
2019-04-22T10:47:07.207Z,100625.59
2019-04-22T10:49:38.236Z,100615.45
2019-04-22T10:52:08.739Z,100611.75
2019-04-22T10:54:38.647Z,100617.77
2019-04-22T10:57:08.658Z,100601.62
2019-04-22T10:59:38.561Z,100601.19
2019-04-22T11:02:09.697Z,100599.95
2019-04-22T11:04:40.436Z,100592.80
2019-04-22T11:07:12.772Z,100597.06
2019-04-22T11:09:51.689Z,100589.44
2019-04-22T11:12:17.646Z,100572.82
2019-04-22T11:14:45.515Z,100587.75
2019-04-22T11:17:17.729Z,100589.89
2019-04-22T11:19:47.945Z,100572.17
2019-04-22T11:22:23.921Z,100558.84
2019-04-22T11:24:50.692Z,100559.73
2019-04-22T11:27:21.181Z,100564.88
2019-04-22T11:29:50.907Z,100559.69
2019-04-22T11:32:20.739Z,100545.42
2019-04-22T11:34:51.213Z,100546.91
2019-04-22T11:37:21.045Z,100534.47
2019-04-22T11:40:04.875Z,100555.27
2019-04-22T11:42:23.863Z,100537.72
2019-04-22T11:44:55.127Z,100544.38
2019-04-22T11:47:25.551Z,100536.47
2019-04-22T11:49:55.556Z,100537.09
2019-04-22T11:52:26.770Z,100532.00
2019-04-22T11:54:57.008Z,100515.72
2019-04-22T11:57:26.754Z,100525.58
2019-04-22T11:59:56.619Z,100512.20
2019-04-22T12:02:29.187Z,100508.11
2019-04-22T12:04:58.972Z,100510.88
2019-04-22T12:07:31.723Z,100517.95
2019-04-22T12:10:13.271Z,100500.48
2019-04-22T12:12:32.077Z,100497.89
2019-04-22T12:15:02.039Z,100496.59
2019-04-22T12:17:32.091Z,100483.35
2019-04-22T12:20:05.063Z,100491.34
2019-04-22T12:22:33.908Z,100480.42
2019-04-22T12:25:10.565Z,100475.38
2019-04-22T12:27:41.267Z,100467.80
2019-04-22T12:30:19.584Z,100463.71
2019-04-22T12:32:52.696Z,100460.41
2019-04-22T12:35:24.203Z,100447.19
2019-04-22T12:37:59.760Z,100449.73
2019-04-22T12:40:37.268Z,100448.03
2019-04-22T12:42:59.796Z,100431.69
2019-04-22T12:45:30.117Z,100436.95
2019-04-22T12:48:00.124Z,100417.08
2019-04-22T12:50:34.907Z,100429.94
2019-04-22T12:53:08.439Z,100426.03
2019-04-22T12:55:34.361Z,100416.89
2019-04-22T12:58:05.426Z,100420.75
2019-04-22T13:00:36.324Z,100419.00
2019-04-22T13:03:07.299Z,100410.03
2019-04-22T13:05:37.572Z,100408.88
2019-04-22T13:08:07.805Z,100404.61
2019-04-22T13:10:45.772Z,100404.59
2019-04-22T13:13:11.163Z,100393.91
2019-04-22T13:15:41.370Z,100383.77
2019-04-22T13:18:20.783Z,100383.94
2019-04-22T13:20:44.299Z,100383.36
2019-04-22T13:23:15.691Z,100383.75
2019-04-22T13:25:47.143Z,100378.07
2019-04-22T13:28:18.903Z,100370.60
2019-04-22T13:30:50.917Z,100369.16
2019-04-22T13:33:21.010Z,100358.66
2019-04-22T13:35:52.131Z,100356.63
2019-04-22T13:38:22.783Z,100354.50
2019-04-22T13:41:12.496Z,100353.91
2019-04-22T13:43:24.991Z,100359.69
2019-04-22T13:45:56.050Z,100362.52
2019-04-22T13:48:47.042Z,100350.10
2019-04-22T13:54:29.997Z,100351.20
2019-04-22T13:56:19.068Z,100343.91
2019-04-22T13:58:45.874Z,100347.25
2019-04-22T14:01:14.675Z,100336.66
2019-04-22T14:04:04.816Z,100337.83
2019-04-22T14:06:34.797Z,100334.76
2019-04-22T14:09:07.467Z,100334.67
2019-04-22T14:11:46.143Z,100325.47
2019-04-22T14:14:09.225Z,100324.28
2019-04-22T14:16:40.632Z,100316.20
2019-04-22T14:19:11.907Z,100320.95
2019-04-22T14:21:44.257Z,100313.91
2019-04-22T14:24:14.336Z,100316.77
2019-04-22T14:27:01.361Z,100313.09
2019-04-22T14:29:17.500Z,100310.27
2019-04-22T14:31:59.250Z,100302.83
2019-04-22T14:34:20.901Z,100302.89
2019-04-22T14:36:51.097Z,100291.84
2019-04-22T14:39:21.987Z,100288.31
2019-04-22T14:42:08.450Z,100276.80
2019-04-22T14:45:16.906Z,100273.91
2019-04-22T14:47:19.885Z,100272.81
2019-04-22T14:49:48.188Z,100273.42
2019-04-22T14:52:22.693Z,100275.98
2019-04-22T14:54:41.292Z,100262.77
2019-04-22T14:57:01.339Z,100249.05
2019-04-22T14:59:32.566Z,100246.09
2019-04-22T15:02:03.539Z,100244.69
2019-04-22T15:04:33.440Z,100242.33
2019-04-22T15:07:03.206Z,100239.28
2019-04-22T15:09:34.187Z,100239.07
2019-04-22T15:12:15.135Z,100239.91
2019-04-22T15:14:35.647Z,100235.45
2019-04-22T15:17:11.194Z,100235.65
2019-04-22T15:19:43.799Z,100227.73
2019-04-22T15:22:14.569Z,100217.55
2019-04-22T15:24:45.024Z,100221.52
2019-04-22T15:27:16.280Z,100218.05
2019-04-22T15:29:47.250Z,100211.02
2019-04-22T15:32:17.610Z,100217.51
2019-04-22T15:34:48.879Z,100210.51
2019-04-22T15:37:20.338Z,100212.61
2019-04-22T15:39:50.176Z,100205.63
2019-04-22T15:42:27.763Z,100207.96
2019-04-22T15:44:51.721Z,100208.94
2019-04-22T15:47:22.863Z,100204.45
2019-04-22T15:49:53.969Z,100206.03
2019-04-22T15:52:31.966Z,100195.93
2019-04-22T15:54:56.363Z,100193.21
2019-04-22T15:57:26.669Z,100191.28
2019-04-22T16:00:13.131Z,100189.52
2019-04-22T16:02:28.012Z,100194.58
2019-04-22T16:04:58.857Z,100189.34
2019-04-22T16:07:29.773Z,100208.98
2019-04-22T16:09:59.825Z,100198.09
2019-04-22T16:12:38.699Z,100194.22
2019-04-22T16:15:03.188Z,100195.36
2019-04-22T16:17:32.833Z,100196.94
2019-04-22T16:20:03.690Z,100186.80
2019-04-22T16:22:35.109Z,100192.23
2019-04-22T16:25:25.015Z,100193.81
2019-04-22T16:27:56.346Z,100181.71
2019-04-22T16:30:27.688Z,100188.53
2019-04-22T16:33:03.467Z,100188.33
2019-04-22T16:35:34.954Z,100188.53
2019-04-22T16:38:06.650Z,100195.12
2019-04-22T16:40:36.808Z,100190.08
2019-04-22T16:43:09.277Z,100177.03
2019-04-22T16:45:38.161Z,100174.70
2019-04-22T16:48:09.274Z,100176.44
2019-04-22T16:50:42.841Z,100178.39
2019-04-22T16:53:10.648Z,100172.37
2019-04-22T16:55:41.044Z,100170.23
2019-04-22T16:58:12.716Z,100175.09
2019-04-22T17:00:43.128Z,100171.78
2019-04-22T17:03:24.888Z,100163.41
2019-04-22T17:06:09.830Z,100166.92
2019-04-22T17:08:39.953Z,100165.73
2019-04-22T17:11:09.953Z,100169.61
2019-04-22T17:13:41.885Z,100163.77
2019-04-22T17:16:11.948Z,100167.61
2019-04-22T17:18:43.423Z,100171.67
2019-04-22T17:21:14.662Z,100166.80
2019-04-22T17:23:45.718Z,100177.48
2019-04-22T17:26:16.741Z,100173.58
2019-04-22T17:28:46.752Z,100165.02
2019-04-22T17:31:16.596Z,100165.95
2019-04-22T17:33:46.756Z,100167.66
2019-04-22T17:36:18.206Z,100165.29
2019-04-22T17:38:55.025Z,100162.53
2019-04-22T17:41:30.262Z,100159.61
2019-04-22T17:44:18.960Z,100161.73
2019-04-22T17:46:40.270Z,100159.34
2019-04-22T17:49:27.942Z,100166.48
2019-04-22T17:52:10.802Z,100153.81
2019-04-22T17:54:46.851Z,100161.12
2019-04-22T17:57:09.972Z,100156.05
2019-04-22T17:59:44.668Z,100155.78
2019-04-22T18:02:16.741Z,100161.81
2019-04-22T18:04:33.731Z,100158.85
2019-04-22T18:07:24.834Z,100161.89
2019-04-22T18:10:16.473Z,100166.69
2019-04-22T18:12:34.017Z,100163.91
2019-04-22T18:15:00.984Z,100166.22
2019-04-22T18:17:30.572Z,100168.05
2019-04-22T18:19:54.581Z,100184.48
2019-04-22T18:22:21.842Z,100182.70
2019-04-22T18:24:55.973Z,100184.19
2019-04-22T18:30:00.017Z,100181.13
2019-04-22T18:32:35.821Z,100180.08
2019-04-22T18:35:07.257Z,100186.95
2019-04-22T18:37:41.364Z,100181.49
2019-04-22T18:40:11.705Z,100190.37
2019-04-22T18:42:46.342Z,100189.08
2019-04-22T18:45:29.674Z,100200.34
2019-04-22T18:47:38.945Z,100184.79
2019-04-22T18:50:22.015Z,100196.61
2019-04-22T18:53:10.932Z,100191.52
2019-04-22T18:55:35.205Z,100196.09
2019-04-22T18:58:08.496Z,100194.03
2019-04-22T19:00:41.844Z,100198.00
2019-04-22T19:03:19.608Z,100193.84
2019-04-22T19:06:11.791Z,100197.28
2019-04-22T19:08:36.414Z,100195.51
2019-04-22T19:11:20.980Z,100190.72
2019-04-22T19:13:56.139Z,100201.13
2019-04-22T19:16:25.784Z,100200.46
2019-04-22T19:18:50.203Z,100202.69
2019-04-22T19:21:14.955Z,100196.52
2019-04-22T19:23:50.570Z,100208.27
2019-04-22T19:26:32.421Z,100209.80
2019-04-22T19:28:49.778Z,100204.52
2019-04-22T19:31:24.664Z,100206.71
2019-04-22T19:33:53.697Z,100208.62
2019-04-22T19:36:26.116Z,100205.97
2019-04-22T19:38:52.579Z,100207.77
2019-04-22T19:41:29.214Z,100203.88
2019-04-22T19:44:05.498Z,100210.51
2019-04-22T19:46:28.679Z,100214.92
2019-04-22T19:49:06.997Z,100211.47
2019-04-22T19:51:57.295Z,100213.45
2019-04-22T19:54:01.503Z,100212.62
2019-04-22T19:56:28.231Z,100209.06
2019-04-22T19:59:08.767Z,100206.52
2019-04-22T20:01:54.179Z,100206.38
2019-04-22T20:04:41.699Z,100211.98
2019-04-22T20:07:08.399Z,100208.64
2019-04-22T20:09:46.690Z,100209.70
2019-04-22T20:12:15.140Z,100207.14
2019-04-22T20:14:46.375Z,100210.63
2019-04-22T20:17:19.834Z,100211.55
2019-04-22T20:22:17.680Z,100209.34
2019-04-22T20:24:44.792Z,100209.77
2019-04-22T20:27:28.545Z,100213.63
2019-04-22T20:30:13.218Z,100212.89
2019-04-22T20:32:27.881Z,100213.16
2019-04-22T20:35:02.972Z,100206.49
2019-04-22T20:37:35.475Z,100205.14
2019-04-22T20:40:00.502Z,100209.39
2019-04-22T20:45:03.980Z,100197.05
2019-04-22T20:47:30.633Z,100196.73
2019-04-22T20:50:05.277Z,100194.31
2019-04-22T20:52:50.519Z,100191.22
2019-04-22T20:55:07.777Z,100188.71
2019-04-22T20:57:48.450Z,100182.84
2019-04-22T21:00:11.659Z,100183.39
2019-04-22T21:02:37.640Z,100175.42
2019-04-22T21:05:03.258Z,100180.49
2019-04-22T21:07:52.967Z,100181.09
2019-04-22T21:10:15.854Z,100180.61
2019-04-22T21:12:39.995Z,100186.04
2019-04-22T21:15:26.251Z,100180.20
2019-04-22T21:17:53.793Z,100182.33
2019-04-22T21:20:31.803Z,100185.43
2019-04-22T21:22:56.259Z,100190.54
2019-04-22T21:25:24.005Z,100194.06
2019-04-22T21:28:04.862Z,100197.28
2019-04-22T21:30:32.027Z,100193.92
2019-04-22T21:32:58.238Z,100194.18
2019-04-22T21:38:08.759Z,100193.83
2019-04-22T21:40:39.498Z,100189.45
2019-04-22T21:43:13.644Z,100182.05
2019-04-22T21:45:37.628Z,100177.38
2019-04-22T21:53:25.145Z,100172.36
2019-04-22T21:56:03.957Z,100176.77
2019-04-22T21:58:49.433Z,100171.36
2019-04-22T22:01:29.137Z,100168.87
2019-04-22T22:03:55.153Z,100170.27
2019-04-22T22:06:16.617Z,100177.36
2019-04-22T22:08:56.866Z,100173.57
2019-04-22T22:11:26.054Z,100182.73
2019-04-22T22:13:58.766Z,100179.05
2019-04-22T22:16:23.352Z,100187.42
2019-04-22T22:19:04.292Z,100185.39
2019-04-22T22:21:43.901Z,100182.73
2019-04-22T22:24:10.080Z,100178.84
2019-04-22T22:26:40.702Z,100174.59
2019-04-22T22:29:09.767Z,100174.81
2019-04-22T22:31:40.243Z,100177.44
2019-04-22T22:34:13.623Z,100169.25
2019-04-22T22:36:36.868Z,100173.53
2019-04-22T22:39:07.629Z,100169.50
2019-04-22T22:41:23.972Z,100180.05
2019-04-22T22:44:03.239Z,100178.48
2019-04-22T22:46:34.173Z,100180.84
2019-04-22T22:49:22.895Z,100175.25
2019-04-22T22:52:11.691Z,100171.53
2019-04-22T22:54:26.948Z,100170.76
2019-04-22T22:59:30.006Z,100165.52
2019-04-22T23:01:54.395Z,100161.61
2019-04-22T23:04:37.273Z,100154.23
2019-04-22T23:07:09.340Z,100152.00
2019-04-22T23:09:30.712Z,100148.17
2019-04-22T23:14:31.126Z,100140.33
2019-04-22T23:16:52.875Z,100141.69
2019-04-22T23:19:15.886Z,100142.03
2019-04-22T23:21:49.470Z,100137.20
2019-04-22T23:24:58.155Z,100142.13
2019-04-22T23:27:34.591Z,100138.53
2019-04-22T23:30:08.892Z,100134.51
2019-04-22T23:32:42.651Z,100126.91
2019-04-22T23:35:29.299Z,100128.01
2019-04-22T23:37:59.613Z,100131.68
2019-04-22T23:40:34.384Z,100130.67
2019-04-22T23:43:09.421Z,100120.92
2019-04-22T23:45:43.325Z,100122.35
2019-04-22T23:48:05.841Z,100114.30
2019-04-22T23:50:37.764Z,100114.30
2019-04-22T23:53:31.626Z,100106.68
2019-04-22T23:55:51.203Z,100104.78
2019-04-22T23:58:34.950Z,100105.88
